createdAt,value
2018-05-12T00:01:14.980Z,68.70
2018-05-12T00:03:42.487Z,68.70
2018-05-12T00:06:10.098Z,68.80
2018-05-12T00:08:37.531Z,68.70
2018-05-12T00:11:05.043Z,68.80
2018-05-12T00:13:32.556Z,68.60
2018-05-12T00:16:00.065Z,68.80
2018-05-12T00:18:27.577Z,68.80
2018-05-12T00:20:55.096Z,68.80
2018-05-12T00:23:22.603Z,69.40
2018-05-12T00:25:50.098Z,69.50
2018-05-12T00:28:17.616Z,69.60
2018-05-12T00:30:45.130Z,69.30
2018-05-12T00:33:12.624Z,69.30
2018-05-12T00:35:40.127Z,69.20
2018-05-12T00:38:07.649Z,69.30
2018-05-12T00:40:35.175Z,69.00
2018-05-12T00:43:02.796Z,69.00
2018-05-12T00:45:30.250Z,69.00
2018-05-12T00:47:58.526Z,68.90
2018-05-12T00:50:26.804Z,68.80
2018-05-12T00:52:55.095Z,68.80
2018-05-12T00:55:22.612Z,68.60
2018-05-12T00:57:50.115Z,68.80
2018-05-12T01:00:17.667Z,68.90
2018-05-12T01:02:45.172Z,68.80
2018-05-12T01:05:12.683Z,68.80
2018-05-12T01:07:40.189Z,69.00
2018-05-12T01:10:07.726Z,69.10
2018-05-12T01:12:35.233Z,69.30
2018-05-12T01:15:03.512Z,69.50
2018-05-12T01:17:31.795Z,69.90
2018-05-12T01:20:00.096Z,69.80
2018-05-12T01:22:27.595Z,69.80
2018-05-12T01:24:55.911Z,70.90
2018-05-12T01:27:24.182Z,71.00
2018-05-12T01:29:52.461Z,71.00
2018-05-12T01:32:20.726Z,71.20
2018-05-12T01:34:48.999Z,71.60
2018-05-12T01:37:17.263Z,71.70
2018-05-12T01:39:44.767Z,71.60
2018-05-12T01:42:12.281Z,71.80
2018-05-12T01:44:39.783Z,71.40
2018-05-12T01:47:07.303Z,71.00
2018-05-12T01:49:35.569Z,70.60
2018-05-12T01:52:03.095Z,70.60
2018-05-12T01:54:30.624Z,70.40
2018-05-12T01:56:58.126Z,70.30
2018-05-12T01:59:25.644Z,70.20
2018-05-12T02:01:53.174Z,70.10
2018-05-12T02:04:20.695Z,70.00
2018-05-12T02:06:48.202Z,70.10
2018-05-12T02:09:16.470Z,70.40
2018-05-12T02:11:44.751Z,71.20
2018-05-12T02:14:13.035Z,70.70
2018-05-12T02:16:41.303Z,70.60
2018-05-12T02:19:09.577Z,70.70
2018-05-12T02:21:37.867Z,70.80
2018-05-12T02:24:05.385Z,70.70
2018-05-12T02:26:32.890Z,70.80
2018-05-12T02:29:00.455Z,71.00
2018-05-12T02:31:27.958Z,71.10
2018-05-12T02:33:55.483Z,71.10
2018-05-12T02:36:22.998Z,71.30
2018-05-12T02:38:51.271Z,71.90
2018-05-12T02:41:19.539Z,72.10
2018-05-12T02:43:47.128Z,72.00
2018-05-12T02:46:14.663Z,72.10
2018-05-12T02:48:42.161Z,72.30
2018-05-12T02:51:09.671Z,73.50
2018-05-12T02:53:37.188Z,72.70
2018-05-12T02:56:04.704Z,73.50
2018-05-12T02:58:33.000Z,74.20
2018-05-12T03:01:00.504Z,74.10
2018-05-12T03:03:28.028Z,74.10
2018-05-12T03:05:55.539Z,74.50
2018-05-12T03:08:23.043Z,74.90
2018-05-12T03:10:50.554Z,75.10
2018-05-12T03:13:18.152Z,75.40
2018-05-12T03:15:45.667Z,75.50
2018-05-12T03:18:13.163Z,75.80
2018-05-12T03:20:40.818Z,75.70
2018-05-12T03:23:09.107Z,76.10
2018-05-12T03:25:36.626Z,75.90
2018-05-12T03:28:04.135Z,76.20
2018-05-12T03:30:31.655Z,76.30
2018-05-12T03:33:00.055Z,76.40
2018-05-12T03:35:27.561Z,76.30
2018-05-12T03:37:55.069Z,76.40
2018-05-12T03:40:22.632Z,76.30
2018-05-12T03:42:50.134Z,76.40
2018-05-12T03:45:17.639Z,76.60
2018-05-12T03:47:45.898Z,76.90
2018-05-12T03:50:14.204Z,76.90
2018-05-12T03:52:41.703Z,76.90
2018-05-12T03:55:09.221Z,76.90
2018-05-12T03:57:36.724Z,77.00
2018-05-12T04:00:04.290Z,77.10
2018-05-12T04:02:31.760Z,77.40
2018-05-12T04:05:11.255Z,77.40
2018-05-12T04:07:50.547Z,77.80
2018-05-12T04:13:14.222Z,77.10
2018-05-12T04:15:41.719Z,77.30
2018-05-12T04:18:09.258Z,77.50
2018-05-12T04:20:37.527Z,78.30
2018-05-12T04:23:05.787Z,77.80
2018-05-12T04:25:33.299Z,77.60
2018-05-12T04:28:00.802Z,77.10
2018-05-12T04:30:28.329Z,74.70
2018-05-12T04:32:55.831Z,72.30
2018-05-12T04:35:24.107Z,68.60
2018-05-12T04:37:52.380Z,66.80
2018-05-12T04:40:20.667Z,65.50
2018-05-12T04:42:48.929Z,63.90
2018-05-12T04:45:16.442Z,63.70
2018-05-12T04:47:43.971Z,63.20
2018-05-12T04:50:12.235Z,60.20
2018-05-12T04:52:40.508Z,59.90
2018-05-12T04:55:08.762Z,59.10
2018-05-12T04:57:36.289Z,59.10
2018-05-12T05:00:03.794Z,58.40
2018-05-12T05:02:32.057Z,56.20
2018-05-12T05:04:59.654Z,56.20
2018-05-12T05:07:27.177Z,55.10
2018-05-12T05:09:54.690Z,54.00
2018-05-12T05:12:22.189Z,53.80
2018-05-12T05:14:49.699Z,53.60
2018-05-12T05:17:17.202Z,52.30
2018-05-12T05:19:44.699Z,51.50
2018-05-12T05:22:12.191Z,50.40
2018-05-12T05:24:39.751Z,49.60
2018-05-12T05:27:07.263Z,49.80
2018-05-12T05:29:35.527Z,49.00
2018-05-12T05:32:03.830Z,49.10
2018-05-12T05:34:31.324Z,49.10
2018-05-12T05:36:58.835Z,48.70
2018-05-12T05:39:27.116Z,47.40
2018-05-12T05:41:55.444Z,47.40
2018-05-12T05:44:22.975Z,47.40
2018-05-12T05:46:50.490Z,47.70
2018-05-12T05:49:18.755Z,48.40
2018-05-12T05:51:46.327Z,48.40
2018-05-12T05:54:13.791Z,49.80
2018-05-12T05:56:42.088Z,52.50
2018-05-12T05:59:09.601Z,52.40
2018-05-12T06:01:37.135Z,53.10
2018-05-12T06:04:04.651Z,54.00
2018-05-12T06:06:32.944Z,54.60
2018-05-12T06:09:00.438Z,54.50
2018-05-12T06:11:27.938Z,54.70
2018-05-12T06:13:56.353Z,54.50
2018-05-12T06:16:23.873Z,54.50
2018-05-12T06:18:52.136Z,55.50
2018-05-12T06:21:20.434Z,55.60
2018-05-12T06:23:48.717Z,56.30
2018-05-12T06:26:16.215Z,56.30
2018-05-12T06:28:43.719Z,56.80
2018-05-12T06:31:12.011Z,56.50
2018-05-12T06:33:39.557Z,56.40
2018-05-12T06:36:07.819Z,57.10
2018-05-12T06:38:36.104Z,57.10
2018-05-12T06:41:04.383Z,57.10
2018-05-12T06:43:31.960Z,56.80
2018-05-12T06:45:59.456Z,57.00
2018-05-12T06:48:26.975Z,57.10
2018-05-12T06:50:54.479Z,57.20
2018-05-12T06:53:22.011Z,57.20
2018-05-12T06:55:49.506Z,57.30
2018-05-12T06:58:18.528Z,57.00
2018-05-12T07:00:46.835Z,57.10
2018-05-12T07:03:14.354Z,57.10
2018-05-12T07:05:42.648Z,57.20
2018-05-12T07:08:10.162Z,57.10
2018-05-12T07:10:37.678Z,57.20
2018-05-12T07:13:05.180Z,57.50
2018-05-12T07:15:34.224Z,57.20
2018-05-12T07:18:01.732Z,57.20
2018-05-12T07:20:29.239Z,56.80
2018-05-12T07:22:56.743Z,56.50
2018-05-12T07:25:24.243Z,56.80
2018-05-12T07:27:51.758Z,57.10
2018-05-12T07:30:19.291Z,57.80
2018-05-12T07:32:46.795Z,57.70
2018-05-12T07:35:14.295Z,56.80
2018-05-12T07:37:41.800Z,56.40
2018-05-12T07:40:09.406Z,56.30
2018-05-12T07:42:36.916Z,56.40
2018-05-12T07:45:04.510Z,56.10
2018-05-12T07:47:31.971Z,56.50
2018-05-12T07:50:00.241Z,56.50
2018-05-12T07:52:27.768Z,56.40
2018-05-12T07:54:55.308Z,56.20
2018-05-12T07:57:22.812Z,56.30
2018-05-12T07:59:51.079Z,56.00
2018-05-12T08:02:18.606Z,55.90
2018-05-12T08:04:46.106Z,55.60
2018-05-12T08:07:14.374Z,55.30
2018-05-12T08:09:42.661Z,54.70
2018-05-12T08:12:10.950Z,54.00
2018-05-12T08:14:38.495Z,53.90
2018-05-12T08:17:06.767Z,55.00
2018-05-12T08:19:35.040Z,53.80
2018-05-12T08:22:03.306Z,53.80
2018-05-12T08:24:30.809Z,53.70
2018-05-12T08:26:58.337Z,53.10
2018-05-12T08:29:25.848Z,53.20
2018-05-12T08:31:53.434Z,53.90
2018-05-12T08:34:20.938Z,53.30
2018-05-12T08:36:48.427Z,50.20
2018-05-12T08:39:15.949Z,49.80
2018-05-12T08:41:43.459Z,50.00
2018-05-12T08:44:10.975Z,47.50
2018-05-12T08:46:38.482Z,45.60
2018-05-12T08:49:05.987Z,45.20
2018-05-12T08:51:33.496Z,43.50
2018-05-12T08:54:01.000Z,43.10
2018-05-12T08:56:28.550Z,41.90
2018-05-12T08:58:56.059Z,39.70
2018-05-12T09:01:23.564Z,39.70
2018-05-12T09:03:51.076Z,39.60
2018-05-12T09:06:18.582Z,41.60
2018-05-12T09:08:46.071Z,42.30
2018-05-12T09:11:13.579Z,42.30
2018-05-12T09:13:41.864Z,42.80
2018-05-12T09:16:10.130Z,43.10
2018-05-12T09:18:38.402Z,42.20
2018-05-12T09:21:06.690Z,40.90
2018-05-12T09:23:34.963Z,39.50
2018-05-12T09:26:03.237Z,39.00
2018-05-12T09:28:31.503Z,39.20
2018-05-12T09:30:59.782Z,37.10
2018-05-12T09:33:28.044Z,37.20
2018-05-12T09:35:55.555Z,36.80
2018-05-12T09:38:23.048Z,35.30
2018-05-12T09:40:50.575Z,33.80
2018-05-12T09:43:18.082Z,33.50
2018-05-12T09:45:45.590Z,34.60
2018-05-12T09:48:13.120Z,33.40
2018-05-12T09:50:42.148Z,32.00
2018-05-12T09:53:09.686Z,31.90
2018-05-12T09:55:37.186Z,33.00
2018-05-12T09:58:04.695Z,32.80
2018-05-12T10:00:32.199Z,32.30
2018-05-12T10:02:59.722Z,32.50
2018-05-12T10:05:27.225Z,33.50
2018-05-12T10:07:54.717Z,34.00
2018-05-12T10:10:22.982Z,34.20
2018-05-12T10:12:51.343Z,34.90
2018-05-12T10:15:19.571Z,35.30
2018-05-12T10:17:47.128Z,35.20
2018-05-12T10:20:14.624Z,35.00
2018-05-12T10:22:43.657Z,36.30
2018-05-12T10:25:11.982Z,36.50
2018-05-12T10:27:39.488Z,36.50
2018-05-12T10:30:07.757Z,34.90
2018-05-12T10:32:35.283Z,34.90
2018-05-12T10:35:02.798Z,36.00
2018-05-12T10:37:30.300Z,35.20
2018-05-12T10:39:57.825Z,34.30
2018-05-12T10:42:25.325Z,33.80
2018-05-12T10:44:52.924Z,34.00
2018-05-12T10:47:20.366Z,34.20
2018-05-12T10:49:48.628Z,34.40
2018-05-12T10:52:16.135Z,34.30
2018-05-12T10:54:43.623Z,35.50
2018-05-12T10:57:11.127Z,34.80
2018-05-12T10:59:39.391Z,35.40
2018-05-12T11:02:07.703Z,35.00
2018-05-12T11:04:35.224Z,35.00
2018-05-12T11:07:03.535Z,35.50
2018-05-12T11:09:31.040Z,35.40
2018-05-12T11:11:58.557Z,35.50
2018-05-12T11:14:26.070Z,35.20
2018-05-12T11:16:54.353Z,35.70
2018-05-12T11:19:21.954Z,35.60
2018-05-12T11:21:49.516Z,35.70
2018-05-12T11:24:17.059Z,36.30
2018-05-12T11:26:44.692Z,35.90
2018-05-12T11:29:12.149Z,35.80
2018-05-12T11:31:39.652Z,36.00
2018-05-12T11:34:07.151Z,36.70
2018-05-12T11:36:34.656Z,36.00
2018-05-12T11:39:02.199Z,35.80
2018-05-12T11:41:30.466Z,36.00
2018-05-12T11:43:58.738Z,37.00
2018-05-12T11:46:27.013Z,37.30
2018-05-12T11:48:55.306Z,38.60
2018-05-12T11:51:23.582Z,38.40
2018-05-12T11:53:51.078Z,37.80
2018-05-12T11:56:18.596Z,36.40
2018-05-12T11:58:46.859Z,36.70
2018-05-12T12:01:15.146Z,37.00
2018-05-12T12:03:43.563Z,35.50
2018-05-12T12:06:11.091Z,35.50
2018-05-12T12:08:38.648Z,35.50
2018-05-12T12:11:06.178Z,37.20
2018-05-12T12:13:34.477Z,38.50
2018-05-12T12:16:02.748Z,36.30
2018-05-12T12:18:31.019Z,36.70
2018-05-12T12:20:59.299Z,35.70
2018-05-12T12:23:27.572Z,35.90
2018-05-12T12:25:55.871Z,35.70
2018-05-12T12:28:23.396Z,35.60
2018-05-12T12:30:50.886Z,35.60
2018-05-12T12:33:18.809Z,36.80
2018-05-12T12:35:46.322Z,35.40
2018-05-12T12:38:13.851Z,35.40
2018-05-12T12:40:42.118Z,36.30
2018-05-12T12:43:09.616Z,36.30
2018-05-12T12:45:37.127Z,37.00
2018-05-12T12:48:05.391Z,36.70
2018-05-12T12:50:32.886Z,36.70
2018-05-12T12:53:01.181Z,36.00
2018-05-12T12:55:29.445Z,36.30
2018-05-12T12:57:56.934Z,36.30
2018-05-12T13:00:24.464Z,35.80
2018-05-12T13:02:52.720Z,35.60
2018-05-12T13:05:20.991Z,36.50
2018-05-12T13:07:49.280Z,36.10
2018-05-12T13:10:17.551Z,36.50
2018-05-12T13:12:45.824Z,36.40
2018-05-12T13:15:14.096Z,35.60
2018-05-12T13:17:42.363Z,36.70
2018-05-12T13:20:09.864Z,36.70
2018-05-12T13:22:37.370Z,36.80
2018-05-12T13:25:04.875Z,37.70
2018-05-12T13:27:32.378Z,36.80
2018-05-12T13:29:59.890Z,36.90
2018-05-12T13:32:27.454Z,37.60
2018-05-12T13:34:54.915Z,38.80
2018-05-12T13:37:22.424Z,38.50
2018-05-12T13:39:50.033Z,38.00
2018-05-12T13:42:17.535Z,36.80
2018-05-12T13:44:45.046Z,36.70
2018-05-12T13:47:12.564Z,36.20
2018-05-12T13:49:40.067Z,36.40
2018-05-12T13:52:07.557Z,36.60
2018-05-12T13:54:35.095Z,37.60
2018-05-12T13:57:02.588Z,38.20
2018-05-12T13:59:30.190Z,37.00
2018-05-12T14:01:57.733Z,37.90
2018-05-12T14:04:25.366Z,38.50
2018-05-12T14:06:52.964Z,37.90
2018-05-12T14:09:20.476Z,38.00
2018-05-12T14:11:47.968Z,37.60
2018-05-12T14:14:16.302Z,39.80
2018-05-12T14:16:43.805Z,39.80
2018-05-12T14:19:12.083Z,38.60
2018-05-12T14:21:40.365Z,38.60
2018-05-12T14:24:08.639Z,38.90
2018-05-12T14:26:36.937Z,38.90
2018-05-12T14:29:04.444Z,38.90
2018-05-12T14:31:32.755Z,38.50
2018-05-12T14:34:00.515Z,39.10
2018-05-12T14:36:28.902Z,38.50
2018-05-12T14:38:56.400Z,38.40
2018-05-12T14:41:23.960Z,39.20
2018-05-12T14:43:51.466Z,39.00
2018-05-12T14:46:19.726Z,39.00
2018-05-12T14:48:48.015Z,39.60
2018-05-12T14:51:16.275Z,39.90
2018-05-12T14:53:43.851Z,39.80
2018-05-12T14:56:11.362Z,39.90
2018-05-12T14:58:38.888Z,39.80
2018-05-12T15:01:06.398Z,39.90
2018-05-12T15:03:33.910Z,40.40
2018-05-12T15:06:01.417Z,40.00
2018-05-12T15:08:29.010Z,39.60
2018-05-12T15:10:56.484Z,40.00
2018-05-12T15:13:23.981Z,40.00
2018-05-12T15:15:51.500Z,41.00
2018-05-12T15:18:19.004Z,40.80
2018-05-12T15:20:46.523Z,40.70
2018-05-12T15:23:14.056Z,40.50
2018-05-12T15:25:42.334Z,41.00
2018-05-12T15:28:09.846Z,41.00
2018-05-12T15:30:37.463Z,40.30
2018-05-12T15:33:05.039Z,40.20
2018-05-12T15:35:32.538Z,40.10
2018-05-12T15:38:00.064Z,40.40
2018-05-12T15:40:27.596Z,40.60
2018-05-12T15:42:55.879Z,40.50
2018-05-12T15:45:23.378Z,40.50
2018-05-12T15:47:50.896Z,40.20
2018-05-12T15:50:18.398Z,40.20
2018-05-12T15:52:45.896Z,40.30
2018-05-12T15:55:14.174Z,39.90
2018-05-12T15:57:42.433Z,40.30
2018-05-12T16:00:10.732Z,40.40
2018-05-12T16:02:38.233Z,40.40
2018-05-12T16:05:05.722Z,40.90
2018-05-12T16:07:33.263Z,40.40
2018-05-12T16:10:00.771Z,40.80
2018-05-12T16:12:28.327Z,40.80
2018-05-12T16:14:55.894Z,41.00
2018-05-12T16:17:23.427Z,41.60
2018-05-12T16:19:51.710Z,41.60
2018-05-12T16:22:20.006Z,41.30
2018-05-12T16:24:47.526Z,41.30
2018-05-12T16:27:15.033Z,41.70
2018-05-12T16:29:42.542Z,41.60
2018-05-12T16:32:10.039Z,42.00
2018-05-12T16:34:37.552Z,42.10
2018-05-12T16:37:05.812Z,42.10
2018-05-12T16:39:33.331Z,42.10
2018-05-12T16:42:00.839Z,42.20
2018-05-12T16:44:29.893Z,42.60
2018-05-12T16:46:57.394Z,42.50
2018-05-12T16:49:24.885Z,42.70
2018-05-12T16:51:52.399Z,42.30
2018-05-12T16:54:19.903Z,42.60
2018-05-12T16:56:48.215Z,43.00
2018-05-12T16:59:15.727Z,43.00
2018-05-12T17:01:44.004Z,43.00
2018-05-12T17:04:12.283Z,42.90
2018-05-12T17:06:40.667Z,42.80
2018-05-12T17:09:08.941Z,43.10
2018-05-12T17:11:37.206Z,43.20
2018-05-12T17:14:05.485Z,43.60
2018-05-12T17:16:33.750Z,43.80
2018-05-12T17:19:01.277Z,43.80
2018-05-12T17:21:28.846Z,43.70
2018-05-12T17:23:56.455Z,44.10
2018-05-12T17:26:23.943Z,44.20
2018-05-12T17:28:51.571Z,44.50
2018-05-12T17:31:19.830Z,44.90
2018-05-12T17:33:48.122Z,45.10
2018-05-12T17:36:15.615Z,45.00
2018-05-12T17:38:43.171Z,45.30
2018-05-12T17:41:10.679Z,45.70
2018-05-12T17:43:38.952Z,46.20
2018-05-12T17:46:06.467Z,46.20
2018-05-12T17:48:33.981Z,46.60
2018-05-12T17:51:02.273Z,46.90
2018-05-12T17:53:29.838Z,46.80
2018-05-12T17:55:57.388Z,46.80
2018-05-12T17:58:24.874Z,46.90
2018-05-12T18:00:52.369Z,46.80
2018-05-12T18:03:19.875Z,47.10
2018-05-12T18:05:47.418Z,47.30
2018-05-12T18:08:14.931Z,47.20
2018-05-12T18:10:42.443Z,47.30
2018-05-12T18:13:09.968Z,47.40
2018-05-12T18:15:37.598Z,47.40
2018-05-12T18:18:05.916Z,47.70
2018-05-12T18:20:34.180Z,47.80
2018-05-12T18:23:02.481Z,47.90
2018-05-12T18:25:29.995Z,47.90
2018-05-12T18:27:57.506Z,48.10
2018-05-12T18:30:29.675Z,48.30
2018-05-12T18:32:57.222Z,48.40
2018-05-12T18:35:24.732Z,48.60
2018-05-12T18:37:52.223Z,48.80
2018-05-12T18:40:20.512Z,49.00
2018-05-12T18:42:48.042Z,48.90
2018-05-12T18:45:15.536Z,49.00
2018-05-12T18:47:43.040Z,49.20
2018-05-12T18:50:10.561Z,49.30
2018-05-12T18:52:38.056Z,49.50
2018-05-12T18:55:05.577Z,49.60
2018-05-12T18:57:33.832Z,50.10
2018-05-12T19:00:02.109Z,50.10
2018-05-12T19:02:30.363Z,50.50
2018-05-12T19:04:57.894Z,50.50
2018-05-12T19:07:25.390Z,50.80
2018-05-12T19:09:53.689Z,51.00
2018-05-12T19:12:21.205Z,50.90
2018-05-12T19:14:48.725Z,51.20
2018-05-12T19:17:16.979Z,51.50
2018-05-12T19:19:44.488Z,51.50
2018-05-12T19:22:12.091Z,51.70
2018-05-12T19:24:40.376Z,52.10
2018-05-12T19:27:07.969Z,52.10
2018-05-12T19:29:35.488Z,52.10
2018-05-12T19:32:03.004Z,52.40
2018-05-12T19:34:30.510Z,52.60
2018-05-12T19:36:58.036Z,52.90
2018-05-12T19:39:25.531Z,53.30
2018-05-12T19:41:53.018Z,54.10
2018-05-12T19:44:20.535Z,54.30
2018-05-12T19:46:48.805Z,54.90
2018-05-12T19:49:17.195Z,55.40
2018-05-12T19:51:44.772Z,55.40
2018-05-12T19:54:12.290Z,56.00
2018-05-12T19:56:39.862Z,56.40
2018-05-12T19:59:08.145Z,56.80
2018-05-12T20:01:35.662Z,56.80
2018-05-12T20:04:04.681Z,57.70
2018-05-12T20:06:32.990Z,58.00
2018-05-12T20:09:00.489Z,58.00
2018-05-12T20:11:28.028Z,57.90
2018-05-12T20:13:56.296Z,58.30
2018-05-12T20:16:23.803Z,58.20
2018-05-12T20:18:51.332Z,58.30
2018-05-12T20:21:18.836Z,58.40
2018-05-12T20:23:46.373Z,58.90
2018-05-12T20:26:13.882Z,59.20
2018-05-12T20:28:41.427Z,59.50
2018-05-12T20:31:09.014Z,59.90
2018-05-12T20:33:36.466Z,60.10
2018-05-12T20:36:03.980Z,60.60
2018-05-12T20:38:32.272Z,61.10
2018-05-12T20:40:59.783Z,61.00
2018-05-12T20:43:27.303Z,61.30
2018-05-12T20:45:54.838Z,61.60
2018-05-12T20:48:23.118Z,61.90
2018-05-12T20:50:51.387Z,62.30
2018-05-12T20:53:19.689Z,62.50
2018-05-12T20:55:47.188Z,62.40
2018-05-12T20:58:14.718Z,62.70
2018-05-12T21:00:42.240Z,63.00
2018-05-12T21:03:10.599Z,63.30
2018-05-12T21:05:38.058Z,63.30
2018-05-12T21:08:06.347Z,63.80
2018-05-12T21:10:34.630Z,64.00
2018-05-12T21:13:02.913Z,64.20
2018-05-12T21:15:30.416Z,64.20
2018-05-12T21:17:57.951Z,64.30
2018-05-12T21:20:25.465Z,64.40
2018-05-12T21:22:53.762Z,64.40
2018-05-12T21:25:21.266Z,64.40
2018-05-12T21:27:48.767Z,64.50
2018-05-12T21:30:17.053Z,64.80
2018-05-12T21:32:45.318Z,64.90
2018-05-12T21:35:13.594Z,65.20
2018-05-12T21:37:41.868Z,65.30
2018-05-12T21:40:10.162Z,65.60
2018-05-12T21:42:37.670Z,65.50
2018-05-12T21:45:05.176Z,65.80
2018-05-12T21:47:32.694Z,66.00
2018-05-12T21:50:00.184Z,66.10
2018-05-12T21:52:28.474Z,66.50
2018-05-12T21:54:55.974Z,66.80
2018-05-12T21:57:23.504Z,66.70
2018-05-12T21:59:51.016Z,66.70
2018-05-12T22:02:18.547Z,67.00
2018-05-12T22:04:46.168Z,67.40
2018-05-12T22:07:13.707Z,67.50
2018-05-12T22:09:42.003Z,67.90
2018-05-12T22:12:09.504Z,67.90
2018-05-12T22:14:37.026Z,68.30
2018-05-12T22:17:04.556Z,68.40
2018-05-12T22:19:32.817Z,69.00
2018-05-12T22:22:00.340Z,68.90
2018-05-12T22:24:27.867Z,69.60
2018-05-12T22:26:55.388Z,69.10
2018-05-12T22:29:22.920Z,69.20
2018-05-12T22:31:50.427Z,69.70
2018-05-12T22:34:18.718Z,70.40
2018-05-12T22:36:46.219Z,70.40
2018-05-12T22:39:13.828Z,70.40
2018-05-12T22:41:42.092Z,70.80
2018-05-12T22:44:10.383Z,71.00
2018-05-12T22:46:38.647Z,71.00
2018-05-12T22:49:06.926Z,71.00
2018-05-12T22:51:35.195Z,71.30
2018-05-12T22:54:03.487Z,71.40
2018-05-12T22:56:31.016Z,71.40
2018-05-12T22:58:58.518Z,71.50
2018-05-12T23:01:26.063Z,71.50
2018-05-12T23:03:53.643Z,71.60
2018-05-12T23:06:21.875Z,71.80
2018-05-12T23:08:49.375Z,71.80
2018-05-12T23:11:16.894Z,72.60
2018-05-12T23:13:45.161Z,71.90
2018-05-12T23:16:12.695Z,71.90
2018-05-12T23:18:40.194Z,72.00
2018-05-12T23:21:08.489Z,71.80
2018-05-12T23:23:35.999Z,71.80
2018-05-12T23:26:03.519Z,71.90
2018-05-12T23:28:31.048Z,71.80
2018-05-12T23:30:59.308Z,71.80
2018-05-12T23:33:26.851Z,71.80
2018-05-12T23:35:54.339Z,71.90
2018-05-12T23:38:22.602Z,72.30
2018-05-12T23:40:50.115Z,72.20
2018-05-12T23:43:17.606Z,72.50
2018-05-12T23:45:45.302Z,72.60
2018-05-12T23:48:13.567Z,73.10
2018-05-12T23:50:41.859Z,72.50
2018-05-12T23:53:09.388Z,73.10
2018-05-12T23:55:36.894Z,73.10
2018-05-12T23:58:04.418Z,73.50
